sensor_id;sensor_type;location;lat;lon;timestamp;temperature;humidity
15103;DHT22;7652;53.584;9.998;2022-12-10T00:01:31;1.90;99.90
15103;DHT22;7652;53.584;9.998;2022-12-10T00:04:35;1.70;99.90
15103;DHT22;7652;53.584;9.998;2022-12-10T00:07:39;1.70;99.90
15103;DHT22;7652;53.584;9.998;2022-12-10T00:10:42;1.50;99.90
15103;DHT22;7652;53.584;9.998;2022-12-10T00:13:46;1.60;99.90
15103;DHT22;7652;53.584;9.998;2022-12-10T00:16:49;1.80;99.90
15103;DHT22;7652;53.584;9.998;2022-12-10T00:19:52;1.80;99.90
15103;DHT22;7652;53.584;9.998;2022-12-10T00:22:57;1.90;99.90
15103;DHT22;7652;53.584;9.998;2022-12-10T00:26:02;1.90;99.90
15103;DHT22;7652;53.584;9.998;2022-12-10T00:29:07;2.00;99.90
15103;DHT22;7652;53.584;9.998;2022-12-10T00:32:12;1.70;99.90
15103;DHT22;7652;53.584;9.998;2022-12-10T00:35:15;1.70;99.90
15103;DHT22;7652;53.584;9.998;2022-12-10T00:38:19;1.60;99.90
15103;DHT22;7652;53.584;9.998;2022-12-10T00:41:22;1.50;99.90
15103;DHT22;7652;53.584;9.998;2022-12-10T00:44:25;1.50;99.90
15103;DHT22;7652;53.584;9.998;2022-12-10T00:47:28;1.50;99.90
15103;DHT22;7652;53.584;9.998;2022-12-10T00:50:31;1.50;99.90
15103;DHT22;7652;53.584;9.998;2022-12-10T00:53:37;1.70;99.90
15103;DHT22;7652;53.584;9.998;2022-12-10T00:56:41;1.60;99.90
15103;DHT22;7652;53.584;9.998;2022-12-10T00:59:44;1.80;99.90
15103;DHT22;7652;53.584;9.998;2022-12-10T01:02:46;1.90;99.90
15103;DHT22;7652;53.584;9.998;2022-12-10T01:05:49;1.90;99.90
15103;DHT22;7652;53.584;9.998;2022-12-10T01:08:56;1.80;99.90
15103;DHT22;7652;53.584;9.998;2022-12-10T01:12:02;1.80;99.90
15103;DHT22;7652;53.584;9.998;2022-12-10T01:15:06;1.90;99.90
15103;DHT22;7652;53.584;9.998;2022-12-10T01:18:09;1.90;99.90
15103;DHT22;7652;53.584;9.998;2022-12-10T01:21:14;1.70;99.90
15103;DHT22;7652;53.584;9.998;2022-12-10T01:24:18;1.80;99.90
15103;DHT22;7652;53.584;9.998;2022-12-10T01:27:21;1.80;99.90
15103;DHT22;7652;53.584;9.998;2022-12-10T01:30:24;1.70;99.90
15103;DHT22;7652;53.584;9.998;2022-12-10T01:33:27;1.60;99.90
15103;DHT22;7652;53.584;9.998;2022-12-10T01:36:34;1.50;99.90
15103;DHT22;7652;53.584;9.998;2022-12-10T01:39:39;1.70;99.90
15103;DHT22;7652;53.584;9.998;2022-12-10T01:42:42;1.60;99.90
15103;DHT22;7652;53.584;9.998;2022-12-10T01:45:45;1.60;99.90
15103;DHT22;7652;53.584;9.998;2022-12-10T01:48:49;1.60;99.90
15103;DHT22;7652;53.584;9.998;2022-12-10T01:51:55;1.70;99.90
15103;DHT22;7652;53.584;9.998;2022-12-10T01:54:59;1.90;99.90
15103;DHT22;7652;53.584;9.998;2022-12-10T01:58:02;1.80;99.90
15103;DHT22;7652;53.584;9.998;2022-12-10T02:01:08;1.80;99.90
15103;DHT22;7652;53.584;9.998;2022-12-10T02:04:20;1.40;99.90
15103;DHT22;7652;53.584;9.998;2022-12-10T02:07:30;1.40;99.90
15103;DHT22;7652;53.584;9.998;2022-12-10T02:10:46;1.30;99.90
15103;DHT22;7652;53.584;9.998;2022-12-10T02:13:56;1.40;99.90
15103;DHT22;7652;53.584;9.998;2022-12-10T02:17:05;1.50;99.90
15103;DHT22;7652;53.584;9.998;2022-12-10T02:20:14;1.70;99.90
15103;DHT22;7652;53.584;9.998;2022-12-10T02:23:22;1.80;99.90
15103;DHT22;7652;53.584;9.998;2022-12-10T02:26:34;1.60;99.90
15103;DHT22;7652;53.584;9.998;2022-12-10T02:29:43;1.70;99.90
15103;DHT22;7652;53.584;9.998;2022-12-10T02:32:48;1.70;99.90
15103;DHT22;7652;53.584;9.998;2022-12-10T02:35:53;1.70;99.90
15103;DHT22;7652;53.584;9.998;2022-12-10T02:39:00;1.60;99.90
15103;DHT22;7652;53.584;9.998;2022-12-10T02:42:06;1.60;99.90
15103;DHT22;7652;53.584;9.998;2022-12-10T02:45:11;1.60;99.90
15103;DHT22;7652;53.584;9.998;2022-12-10T02:48:15;1.60;99.90
15103;DHT22;7652;53.584;9.998;2022-12-10T02:51:18;1.70;99.90
15103;DHT22;7652;53.584;9.998;2022-12-10T02:54:37;1.70;99.90
15103;DHT22;7652;53.584;9.998;2022-12-10T02:57:49;1.70;99.90
15103;DHT22;7652;53.584;9.998;2022-12-10T03:01:00;1.80;99.90
15103;DHT22;7652;53.584;9.998;2022-12-10T03:04:11;1.90;99.90
15103;DHT22;7652;53.584;9.998;2022-12-10T03:07:18;1.90;99.90
15103;DHT22;7652;53.584;9.998;2022-12-10T03:10:28;2.00;99.90
15103;DHT22;7652;53.584;9.998;2022-12-10T03:13:38;2.00;99.90
15103;DHT22;7652;53.584;9.998;2022-12-10T03:16:45;1.80;99.90
15103;DHT22;7652;53.584;9.998;2022-12-10T03:19:50;1.80;99.90
15103;DHT22;7652;53.584;9.998;2022-12-10T03:22:54;1.70;99.90
15103;DHT22;7652;53.584;9.998;2022-12-10T03:25:58;1.60;99.90
15103;DHT22;7652;53.584;9.998;2022-12-10T03:29:06;1.70;99.90
15103;DHT22;7652;53.584;9.998;2022-12-10T03:32:13;1.70;99.90
15103;DHT22;7652;53.584;9.998;2022-12-10T03:35:17;1.70;99.90
15103;DHT22;7652;53.584;9.998;2022-12-10T03:38:21;1.80;99.90
15103;DHT22;7652;53.584;9.998;2022-12-10T03:41:24;1.90;99.90
15103;DHT22;7652;53.584;9.998;2022-12-10T03:44:28;2.00;99.90
15103;DHT22;7652;53.584;9.998;2022-12-10T03:47:33;1.90;99.90
15103;DHT22;7652;53.584;9.998;2022-12-10T03:50:36;2.10;99.90
15103;DHT22;7652;53.584;9.998;2022-12-10T03:53:39;1.90;99.90
15103;DHT22;7652;53.584;9.998;2022-12-10T03:56:41;2.00;99.90
15103;DHT22;7652;53.584;9.998;2022-12-10T03:59:45;2.00;99.90
15103;DHT22;7652;53.584;9.998;2022-12-10T04:02:49;2.10;99.90
15103;DHT22;7652;53.584;9.998;2022-12-10T04:05:52;2.10;99.90
15103;DHT22;7652;53.584;9.998;2022-12-10T04:08:55;2.00;99.90
15103;DHT22;7652;53.584;9.998;2022-12-10T04:12:00;1.90;99.90
15103;DHT22;7652;53.584;9.998;2022-12-10T04:15:03;1.90;99.90
15103;DHT22;7652;53.584;9.998;2022-12-10T04:18:25;2.00;99.90
15103;DHT22;7652;53.584;9.998;2022-12-10T04:21:30;2.10;99.90
15103;DHT22;7652;53.584;9.998;2022-12-10T04:24:51;2.10;99.90
15103;DHT22;7652;53.584;9.998;2022-12-10T04:28:22;2.00;99.90
15103;DHT22;7652;53.584;9.998;2022-12-10T04:31:25;2.00;99.90
15103;DHT22;7652;53.584;9.998;2022-12-10T04:34:30;1.90;99.90
15103;DHT22;7652;53.584;9.998;2022-12-10T04:37:33;2.00;99.90
15103;DHT22;7652;53.584;9.998;2022-12-10T04:40:36;1.90;99.90
15103;DHT22;7652;53.584;9.998;2022-12-10T04:43:39;2.00;99.90
15103;DHT22;7652;53.584;9.998;2022-12-10T04:46:42;2.10;99.90
15103;DHT22;7652;53.584;9.998;2022-12-10T04:49:46;2.10;99.90
15103;DHT22;7652;53.584;9.998;2022-12-10T04:52:49;2.00;99.90
15103;DHT22;7652;53.584;9.998;2022-12-10T04:55:52;1.90;99.90
15103;DHT22;7652;53.584;9.998;2022-12-10T04:58:56;2.00;99.90
15103;DHT22;7652;53.584;9.998;2022-12-10T05:01:59;2.00;99.90
15103;DHT22;7652;53.584;9.998;2022-12-10T05:05:04;2.00;99.90
15103;DHT22;7652;53.584;9.998;2022-12-10T05:08:07;2.00;99.90
15103;DHT22;7652;53.584;9.998;2022-12-10T05:11:12;2.10;99.90
15103;DHT22;7652;53.584;9.998;2022-12-10T05:14:16;1.90;99.90
15103;DHT22;7652;53.584;9.998;2022-12-10T05:17:19;1.90;99.90
15103;DHT22;7652;53.584;9.998;2022-12-10T05:20:23;2.00;99.90
15103;DHT22;7652;53.584;9.998;2022-12-10T05:23:26;2.10;99.90
15103;DHT22;7652;53.584;9.998;2022-12-10T05:26:31;2.20;99.90
15103;DHT22;7652;53.584;9.998;2022-12-10T05:29:34;2.20;99.90
15103;DHT22;7652;53.584;9.998;2022-12-10T05:32:37;2.30;99.90
15103;DHT22;7652;53.584;9.998;2022-12-10T05:35:41;2.20;99.90
15103;DHT22;7652;53.584;9.998;2022-12-10T05:38:45;2.10;99.90
15103;DHT22;7652;53.584;9.998;2022-12-10T05:41:48;2.20;99.90
15103;DHT22;7652;53.584;9.998;2022-12-10T05:44:51;1.90;99.90
15103;DHT22;7652;53.584;9.998;2022-12-10T05:47:54;1.80;99.90
15103;DHT22;7652;53.584;9.998;2022-12-10T05:51:02;1.60;99.90
15103;DHT22;7652;53.584;9.998;2022-12-10T05:54:06;1.60;99.90
15103;DHT22;7652;53.584;9.998;2022-12-10T05:57:10;1.80;99.90
15103;DHT22;7652;53.584;9.998;2022-12-10T06:00:14;1.80;99.90
15103;DHT22;7652;53.584;9.998;2022-12-10T06:03:17;1.70;99.90
15103;DHT22;7652;53.584;9.998;2022-12-10T06:06:22;1.70;99.90
15103;DHT22;7652;53.584;9.998;2022-12-10T06:09:26;1.80;99.90
15103;DHT22;7652;53.584;9.998;2022-12-10T06:12:29;1.70;99.90
15103;DHT22;7652;53.584;9.998;2022-12-10T06:15:32;1.60;99.90
15103;DHT22;7652;53.584;9.998;2022-12-10T06:18:37;1.50;99.90
15103;DHT22;7652;53.584;9.998;2022-12-10T06:21:41;1.60;99.90
15103;DHT22;7652;53.584;9.998;2022-12-10T06:24:44;1.70;99.90
15103;DHT22;7652;53.584;9.998;2022-12-10T06:27:47;1.70;99.90
15103;DHT22;7652;53.584;9.998;2022-12-10T06:30:50;1.70;99.90
15103;DHT22;7652;53.584;9.998;2022-12-10T06:33:53;1.60;99.90
15103;DHT22;7652;53.584;9.998;2022-12-10T06:36:57;1.60;99.90
15103;DHT22;7652;53.584;9.998;2022-12-10T06:40:01;1.80;99.90
15103;DHT22;7652;53.584;9.998;2022-12-10T06:43:03;1.70;99.90
15103;DHT22;7652;53.584;9.998;2022-12-10T06:46:07;1.70;99.90
15103;DHT22;7652;53.584;9.998;2022-12-10T06:49:11;1.60;99.90
15103;DHT22;7652;53.584;9.998;2022-12-10T06:52:15;1.80;99.90
15103;DHT22;7652;53.584;9.998;2022-12-10T06:55:18;1.60;99.90
15103;DHT22;7652;53.584;9.998;2022-12-10T06:58:21;1.40;99.90
15103;DHT22;7652;53.584;9.998;2022-12-10T07:01:25;1.50;99.90
15103;DHT22;7652;53.584;9.998;2022-12-10T07:04:28;1.50;99.90
15103;DHT22;7652;53.584;9.998;2022-12-10T07:07:33;1.50;99.90
15103;DHT22;7652;53.584;9.998;2022-12-10T07:10:36;1.30;99.90
15103;DHT22;7652;53.584;9.998;2022-12-10T07:13:40;1.20;99.90
15103;DHT22;7652;53.584;9.998;2022-12-10T07:16:43;1.20;99.90
15103;DHT22;7652;53.584;9.998;2022-12-10T07:19:46;1.30;99.90
15103;DHT22;7652;53.584;9.998;2022-12-10T07:22:50;1.30;99.90
15103;DHT22;7652;53.584;9.998;2022-12-10T07:25:54;1.40;99.90
15103;DHT22;7652;53.584;9.998;2022-12-10T07:28:58;1.40;99.90
15103;DHT22;7652;53.584;9.998;2022-12-10T07:32:01;1.30;99.90
15103;DHT22;7652;53.584;9.998;2022-12-10T07:35:05;1.40;99.90
15103;DHT22;7652;53.584;9.998;2022-12-10T07:38:09;1.50;99.90
15103;DHT22;7652;53.584;9.998;2022-12-10T07:41:13;1.60;99.90
15103;DHT22;7652;53.584;9.998;2022-12-10T07:44:16;1.50;99.90
15103;DHT22;7652;53.584;9.998;2022-12-10T07:47:21;1.40;99.90
15103;DHT22;7652;53.584;9.998;2022-12-10T07:50:24;1.50;99.90
15103;DHT22;7652;53.584;9.998;2022-12-10T07:53:28;1.30;99.90
15103;DHT22;7652;53.584;9.998;2022-12-10T07:56:31;1.30;99.90
15103;DHT22;7652;53.584;9.998;2022-12-10T07:59:34;1.30;99.90
15103;DHT22;7652;53.584;9.998;2022-12-10T08:02:37;1.20;99.90
15103;DHT22;7652;53.584;9.998;2022-12-10T08:05:40;1.40;99.90
15103;DHT22;7652;53.584;9.998;2022-12-10T08:08:46;1.30;99.90
15103;DHT22;7652;53.584;9.998;2022-12-10T08:11:49;1.20;99.90
15103;DHT22;7652;53.584;9.998;2022-12-10T08:14:52;1.00;99.90
15103;DHT22;7652;53.584;9.998;2022-12-10T08:17:55;1.00;99.90
15103;DHT22;7652;53.584;9.998;2022-12-10T08:21:01;1.10;99.90
15103;DHT22;7652;53.584;9.998;2022-12-10T08:24:07;1.10;99.90
15103;DHT22;7652;53.584;9.998;2022-12-10T08:27:10;1.20;99.90
15103;DHT22;7652;53.584;9.998;2022-12-10T08:30:13;1.20;99.90
15103;DHT22;7652;53.584;9.998;2022-12-10T08:33:16;1.30;99.90
15103;DHT22;7652;53.584;9.998;2022-12-10T08:36:19;1.30;99.90
15103;DHT22;7652;53.584;9.998;2022-12-10T08:39:24;1.20;99.90
15103;DHT22;7652;53.584;9.998;2022-12-10T08:42:27;1.10;99.90
15103;DHT22;7652;53.584;9.998;2022-12-10T08:45:30;1.20;99.90
15103;DHT22;7652;53.584;9.998;2022-12-10T08:48:34;1.10;99.90
15103;DHT22;7652;53.584;9.998;2022-12-10T08:51:37;1.00;99.90
15103;DHT22;7652;53.584;9.998;2022-12-10T08:54:41;1.10;99.90
15103;DHT22;7652;53.584;9.998;2022-12-10T08:57:44;1.30;99.90
15103;DHT22;7652;53.584;9.998;2022-12-10T09:00:48;1.30;99.90
15103;DHT22;7652;53.584;9.998;2022-12-10T09:03:51;1.10;99.90
15103;DHT22;7652;53.584;9.998;2022-12-10T09:06:55;1.30;99.90
15103;DHT22;7652;53.584;9.998;2022-12-10T09:10:00;1.20;99.90
15103;DHT22;7652;53.584;9.998;2022-12-10T09:13:03;1.30;99.90
15103;DHT22;7652;53.584;9.998;2022-12-10T09:16:06;1.20;99.90
15103;DHT22;7652;53.584;9.998;2022-12-10T09:19:09;1.20;99.90
15103;DHT22;7652;53.584;9.998;2022-12-10T09:22:19;1.40;99.90
15103;DHT22;7652;53.584;9.998;2022-12-10T09:25:23;1.40;99.90
15103;DHT22;7652;53.584;9.998;2022-12-10T09:28:26;1.50;99.90
15103;DHT22;7652;53.584;9.998;2022-12-10T09:31:29;1.50;99.90
15103;DHT22;7652;53.584;9.998;2022-12-10T09:34:32;1.50;99.90
15103;DHT22;7652;53.584;9.998;2022-12-10T09:37:35;1.40;99.90
15103;DHT22;7652;53.584;9.998;2022-12-10T09:40:45;1.50;99.90
15103;DHT22;7652;53.584;9.998;2022-12-10T09:43:54;1.50;99.90
15103;DHT22;7652;53.584;9.998;2022-12-10T09:47:01;1.50;99.90
15103;DHT22;7652;53.584;9.998;2022-12-10T09:50:12;1.30;99.90
15103;DHT22;7652;53.584;9.998;2022-12-10T09:53:21;1.30;99.90
15103;DHT22;7652;53.584;9.998;2022-12-10T09:56:30;1.30;99.90
15103;DHT22;7652;53.584;9.998;2022-12-10T09:59:37;1.30;99.90
15103;DHT22;7652;53.584;9.998;2022-12-10T10:02:41;1.50;99.90
15103;DHT22;7652;53.584;9.998;2022-12-10T10:05:46;1.50;99.90
15103;DHT22;7652;53.584;9.998;2022-12-10T10:08:52;1.50;99.90
15103;DHT22;7652;53.584;9.998;2022-12-10T10:11:57;1.50;99.90
15103;DHT22;7652;53.584;9.998;2022-12-10T10:15:12;1.30;99.90
15103;DHT22;7652;53.584;9.998;2022-12-10T10:18:22;1.10;99.90
15103;DHT22;7652;53.584;9.998;2022-12-10T10:21:29;1.20;99.90
15103;DHT22;7652;53.584;9.998;2022-12-10T10:24:35;1.30;99.90
15103;DHT22;7652;53.584;9.998;2022-12-10T10:27:40;1.30;99.90
15103;DHT22;7652;53.584;9.998;2022-12-10T10:30:43;1.40;99.90
15103;DHT22;7652;53.584;9.998;2022-12-10T10:33:51;1.30;99.90
15103;DHT22;7652;53.584;9.998;2022-12-10T10:36:58;1.30;99.90
15103;DHT22;7652;53.584;9.998;2022-12-10T10:40:04;1.40;99.90
15103;DHT22;7652;53.584;9.998;2022-12-10T10:43:14;1.30;99.90
15103;DHT22;7652;53.584;9.998;2022-12-10T10:46:20;1.30;99.90
15103;DHT22;7652;53.584;9.998;2022-12-10T10:49:25;1.30;99.90
15103;DHT22;7652;53.584;9.998;2022-12-10T10:52:30;1.10;99.90
15103;DHT22;7652;53.584;9.998;2022-12-10T10:55:33;1.20;99.90
15103;DHT22;7652;53.584;9.998;2022-12-10T10:58:47;1.30;99.90
15103;DHT22;7652;53.584;9.998;2022-12-10T11:01:52;1.30;99.90
15103;DHT22;7652;53.584;9.998;2022-12-10T11:04:56;1.30;99.90
15103;DHT22;7652;53.584;9.998;2022-12-10T11:08:02;1.50;99.90
15103;DHT22;7652;53.584;9.998;2022-12-10T11:11:10;1.60;99.90
15103;DHT22;7652;53.584;9.998;2022-12-10T11:14:22;1.70;99.90
15103;DHT22;7652;53.584;9.998;2022-12-10T11:17:26;1.60;99.90
15103;DHT22;7652;53.584;9.998;2022-12-10T11:20:31;1.50;99.90
15103;DHT22;7652;53.584;9.998;2022-12-10T11:23:45;1.60;99.90
15103;DHT22;7652;53.584;9.998;2022-12-10T11:26:57;1.70;99.90
15103;DHT22;7652;53.584;9.998;2022-12-10T11:30:08;1.70;99.90
15103;DHT22;7652;53.584;9.998;2022-12-10T11:33:20;1.70;99.90
15103;DHT22;7652;53.584;9.998;2022-12-10T11:36:32;1.60;99.90
15103;DHT22;7652;53.584;9.998;2022-12-10T11:39:56;1.50;99.90
15103;DHT22;7652;53.584;9.998;2022-12-10T11:43:24;1.50;99.90
15103;DHT22;7652;53.584;9.998;2022-12-10T11:46:46;1.40;99.90
15103;DHT22;7652;53.584;9.998;2022-12-10T11:50:02;1.60;99.90
15103;DHT22;7652;53.584;9.998;2022-12-10T11:53:35;1.70;99.90
15103;DHT22;7652;53.584;9.998;2022-12-10T11:56:44;1.70;99.90
15103;DHT22;7652;53.584;9.998;2022-12-10T11:59:53;1.80;99.90
15103;DHT22;7652;53.584;9.998;2022-12-10T12:06:55;1.70;99.90
15103;DHT22;7652;53.584;9.998;2022-12-10T12:10:30;1.70;99.90
15103;DHT22;7652;53.584;9.998;2022-12-10T12:13:57;1.60;99.90
15103;DHT22;7652;53.584;9.998;2022-12-10T12:17:04;1.50;99.90
15103;DHT22;7652;53.584;9.998;2022-12-10T12:20:16;1.50;99.90
15103;DHT22;7652;53.584;9.998;2022-12-10T12:23:24;1.40;99.90
15103;DHT22;7652;53.584;9.998;2022-12-10T12:26:31;1.50;99.90
15103;DHT22;7652;53.584;9.998;2022-12-10T12:29:37;1.60;99.90
15103;DHT22;7652;53.584;9.998;2022-12-10T12:32:49;1.60;99.90
15103;DHT22;7652;53.584;9.998;2022-12-10T12:35:57;1.70;99.90
15103;DHT22;7652;53.584;9.998;2022-12-10T12:39:06;1.60;99.90
15103;DHT22;7652;53.584;9.998;2022-12-10T12:42:19;1.70;99.90
15103;DHT22;7652;53.584;9.998;2022-12-10T12:45:32;1.80;99.90
15103;DHT22;7652;53.584;9.998;2022-12-10T12:48:40;1.80;99.90
15103;DHT22;7652;53.584;9.998;2022-12-10T12:51:50;1.70;99.90
15103;DHT22;7652;53.584;9.998;2022-12-10T12:54:57;1.30;99.90
15103;DHT22;7652;53.584;9.998;2022-12-10T12:58:14;1.30;99.90
15103;DHT22;7652;53.584;9.998;2022-12-10T13:01:24;1.20;99.90
15103;DHT22;7652;53.584;9.998;2022-12-10T13:04:30;1.40;99.90
15103;DHT22;7652;53.584;9.998;2022-12-10T13:07:35;1.50;99.90
15103;DHT22;7652;53.584;9.998;2022-12-10T13:10:51;1.40;99.90
15103;DHT22;7652;53.584;9.998;2022-12-10T13:14:17;1.50;99.90
15103;DHT22;7652;53.584;9.998;2022-12-10T13:17:33;1.40;99.90
15103;DHT22;7652;53.584;9.998;2022-12-10T13:20:40;1.50;99.90
15103;DHT22;7652;53.584;9.998;2022-12-10T13:23:50;1.50;99.90
15103;DHT22;7652;53.584;9.998;2022-12-10T13:27:16;1.60;99.90
15103;DHT22;7652;53.584;9.998;2022-12-10T13:30:32;1.50;99.90
15103;DHT22;7652;53.584;9.998;2022-12-10T13:33:49;1.50;99.90
15103;DHT22;7652;53.584;9.998;2022-12-10T13:37:15;1.60;99.90
15103;DHT22;7652;53.584;9.998;2022-12-10T13:40:26;1.80;99.90
15103;DHT22;7652;53.584;9.998;2022-12-10T13:43:54;1.50;99.90
15103;DHT22;7652;53.584;9.998;2022-12-10T13:47:25;1.50;99.90
15103;DHT22;7652;53.584;9.998;2022-12-10T13:50:35;1.50;99.90
15103;DHT22;7652;53.584;9.998;2022-12-10T13:53:43;1.50;99.90
15103;DHT22;7652;53.584;9.998;2022-12-10T13:56:56;1.70;99.90
15103;DHT22;7652;53.584;9.998;2022-12-10T14:00:08;1.70;99.90
15103;DHT22;7652;53.584;9.998;2022-12-10T14:03:44;1.70;99.90
15103;DHT22;7652;53.584;9.998;2022-12-10T14:06:51;1.60;99.90
15103;DHT22;7652;53.584;9.998;2022-12-10T14:09:56;1.50;99.90
15103;DHT22;7652;53.584;9.998;2022-12-10T14:13:03;1.40;99.90
15103;DHT22;7652;53.584;9.998;2022-12-10T14:16:10;1.30;99.90
15103;DHT22;7652;53.584;9.998;2022-12-10T14:19:16;1.30;99.90
15103;DHT22;7652;53.584;9.998;2022-12-10T14:22:23;1.40;99.90
15103;DHT22;7652;53.584;9.998;2022-12-10T14:25:27;1.40;99.90
15103;DHT22;7652;53.584;9.998;2022-12-10T14:28:32;1.40;99.90
15103;DHT22;7652;53.584;9.998;2022-12-10T14:31:41;1.30;99.90
15103;DHT22;7652;53.584;9.998;2022-12-10T14:34:51;1.30;99.90
15103;DHT22;7652;53.584;9.998;2022-12-10T14:37:57;1.40;99.90
15103;DHT22;7652;53.584;9.998;2022-12-10T14:41:02;1.40;99.90
15103;DHT22;7652;53.584;9.998;2022-12-10T14:44:10;1.50;99.90
15103;DHT22;7652;53.584;9.998;2022-12-10T14:47:16;1.50;99.90
15103;DHT22;7652;53.584;9.998;2022-12-10T14:50:19;1.40;99.90
15103;DHT22;7652;53.584;9.998;2022-12-10T14:53:25;1.30;99.90
15103;DHT22;7652;53.584;9.998;2022-12-10T14:56:32;1.30;99.90
15103;DHT22;7652;53.584;9.998;2022-12-10T14:59:41;1.40;99.90
15103;DHT22;7652;53.584;9.998;2022-12-10T15:02:47;1.30;99.90
15103;DHT22;7652;53.584;9.998;2022-12-10T15:05:54;1.30;99.90
15103;DHT22;7652;53.584;9.998;2022-12-10T15:08:58;1.40;99.90
15103;DHT22;7652;53.584;9.998;2022-12-10T15:12:01;1.50;99.90
15103;DHT22;7652;53.584;9.998;2022-12-10T15:15:10;1.40;99.90
15103;DHT22;7652;53.584;9.998;2022-12-10T15:18:16;1.50;99.90
15103;DHT22;7652;53.584;9.998;2022-12-10T15:21:21;1.50;99.90
15103;DHT22;7652;53.584;9.998;2022-12-10T15:24:26;1.60;99.90
15103;DHT22;7652;53.584;9.998;2022-12-10T15:27:29;1.60;99.90
15103;DHT22;7652;53.584;9.998;2022-12-10T15:30:36;1.50;99.90
15103;DHT22;7652;53.584;9.998;2022-12-10T15:33:42;1.50;99.90
15103;DHT22;7652;53.584;9.998;2022-12-10T15:36:49;1.50;99.90
15103;DHT22;7652;53.584;9.998;2022-12-10T15:39:54;1.60;99.90
15103;DHT22;7652;53.584;9.998;2022-12-10T15:43:11;1.50;99.90
15103;DHT22;7652;53.584;9.998;2022-12-10T15:46:17;1.50;99.90
15103;DHT22;7652;53.584;9.998;2022-12-10T15:49:20;1.50;99.90
15103;DHT22;7652;53.584;9.998;2022-12-10T15:52:26;1.50;99.90
15103;DHT22;7652;53.584;9.998;2022-12-10T15:55:29;1.40;99.90
15103;DHT22;7652;53.584;9.998;2022-12-10T15:58:32;1.40;99.90
15103;DHT22;7652;53.584;9.998;2022-12-10T16:01:36;1.50;99.90
15103;DHT22;7652;53.584;9.998;2022-12-10T16:04:39;1.60;99.90
15103;DHT22;7652;53.584;9.998;2022-12-10T16:07:43;1.50;99.90
15103;DHT22;7652;53.584;9.998;2022-12-10T16:10:48;1.40;99.90
15103;DHT22;7652;53.584;9.998;2022-12-10T16:13:53;1.40;99.90
15103;DHT22;7652;53.584;9.998;2022-12-10T16:16:58;1.50;99.90
15103;DHT22;7652;53.584;9.998;2022-12-10T16:20:17;1.50;99.90
15103;DHT22;7652;53.584;9.998;2022-12-10T16:23:20;1.40;99.90
15103;DHT22;7652;53.584;9.998;2022-12-10T16:26:23;1.40;99.90
15103;DHT22;7652;53.584;9.998;2022-12-10T16:29:26;1.30;99.90
15103;DHT22;7652;53.584;9.998;2022-12-10T16:32:30;1.30;99.90
15103;DHT22;7652;53.584;9.998;2022-12-10T16:35:33;1.30;99.90
15103;DHT22;7652;53.584;9.998;2022-12-10T16:38:37;1.30;99.90
15103;DHT22;7652;53.584;9.998;2022-12-10T16:41:40;1.30;99.90
15103;DHT22;7652;53.584;9.998;2022-12-10T16:44:43;1.30;99.90
15103;DHT22;7652;53.584;9.998;2022-12-10T16:47:47;1.30;99.90
15103;DHT22;7652;53.584;9.998;2022-12-10T16:50:51;1.30;99.90
15103;DHT22;7652;53.584;9.998;2022-12-10T16:53:55;1.40;99.90
15103;DHT22;7652;53.584;9.998;2022-12-10T16:56:58;1.30;99.90
15103;DHT22;7652;53.584;9.998;2022-12-10T17:00:01;1.20;99.90
15103;DHT22;7652;53.584;9.998;2022-12-10T17:03:05;1.30;99.90
15103;DHT22;7652;53.584;9.998;2022-12-10T17:06:24;1.30;99.90
15103;DHT22;7652;53.584;9.998;2022-12-10T17:09:27;1.20;99.90
15103;DHT22;7652;53.584;9.998;2022-12-10T17:12:30;1.30;99.90
15103;DHT22;7652;53.584;9.998;2022-12-10T17:15:34;1.20;99.90
15103;DHT22;7652;53.584;9.998;2022-12-10T17:18:39;1.20;99.90
15103;DHT22;7652;53.584;9.998;2022-12-10T17:21:42;1.20;99.90
15103;DHT22;7652;53.584;9.998;2022-12-10T17:24:45;1.30;99.90
15103;DHT22;7652;53.584;9.998;2022-12-10T17:27:50;1.30;99.90
15103;DHT22;7652;53.584;9.998;2022-12-10T17:30:53;1.20;99.90
15103;DHT22;7652;53.584;9.998;2022-12-10T17:33:57;1.10;99.90
15103;DHT22;7652;53.584;9.998;2022-12-10T17:37:00;1.10;99.90
15103;DHT22;7652;53.584;9.998;2022-12-10T17:40:06;1.20;99.90
15103;DHT22;7652;53.584;9.998;2022-12-10T17:43:13;1.20;99.90
15103;DHT22;7652;53.584;9.998;2022-12-10T17:46:23;1.20;99.90
15103;DHT22;7652;53.584;9.998;2022-12-10T17:49:27;1.30;99.90
15103;DHT22;7652;53.584;9.998;2022-12-10T17:52:32;1.30;99.90
15103;DHT22;7652;53.584;9.998;2022-12-10T17:55:36;1.30;99.90
15103;DHT22;7652;53.584;9.998;2022-12-10T17:58:50;1.30;99.90
15103;DHT22;7652;53.584;9.998;2022-12-10T18:01:53;1.30;99.90
15103;DHT22;7652;53.584;9.998;2022-12-10T18:04:58;1.20;99.90
15103;DHT22;7652;53.584;9.998;2022-12-10T18:08:01;1.20;99.90
15103;DHT22;7652;53.584;9.998;2022-12-10T18:11:04;1.30;99.90
15103;DHT22;7652;53.584;9.998;2022-12-10T18:14:07;1.20;99.90
15103;DHT22;7652;53.584;9.998;2022-12-10T18:17:11;1.20;99.90
15103;DHT22;7652;53.584;9.998;2022-12-10T18:20:20;1.20;99.90
15103;DHT22;7652;53.584;9.998;2022-12-10T18:23:24;1.20;99.90
15103;DHT22;7652;53.584;9.998;2022-12-10T18:26:27;1.20;99.90
15103;DHT22;7652;53.584;9.998;2022-12-10T18:29:31;1.10;99.90
15103;DHT22;7652;53.584;9.998;2022-12-10T18:32:34;1.20;99.90
15103;DHT22;7652;53.584;9.998;2022-12-10T18:35:38;1.10;99.90
15103;DHT22;7652;53.584;9.998;2022-12-10T18:38:42;1.20;99.90
15103;DHT22;7652;53.584;9.998;2022-12-10T18:41:45;1.00;99.90
15103;DHT22;7652;53.584;9.998;2022-12-10T18:44:48;1.00;99.90
15103;DHT22;7652;53.584;9.998;2022-12-10T18:47:51;1.00;99.90
15103;DHT22;7652;53.584;9.998;2022-12-10T18:51:00;1.00;99.90
15103;DHT22;7652;53.584;9.998;2022-12-10T18:54:04;0.90;99.90
15103;DHT22;7652;53.584;9.998;2022-12-10T18:57:08;0.90;99.90
15103;DHT22;7652;53.584;9.998;2022-12-10T19:00:31;0.90;99.90
15103;DHT22;7652;53.584;9.998;2022-12-10T19:03:36;1.10;99.90
15103;DHT22;7652;53.584;9.998;2022-12-10T19:06:48;1.20;99.90
15103;DHT22;7652;53.584;9.998;2022-12-10T19:09:51;1.20;99.90
15103;DHT22;7652;53.584;9.998;2022-12-10T19:12:54;1.20;99.90
15103;DHT22;7652;53.584;9.998;2022-12-10T19:15:57;1.10;99.90
15103;DHT22;7652;53.584;9.998;2022-12-10T19:19:02;1.00;99.90
15103;DHT22;7652;53.584;9.998;2022-12-10T19:22:08;0.90;99.90
15103;DHT22;7652;53.584;9.998;2022-12-10T19:25:12;1.00;99.90
15103;DHT22;7652;53.584;9.998;2022-12-10T19:28:15;1.10;99.90
15103;DHT22;7652;53.584;9.998;2022-12-10T19:31:21;1.00;99.90
15103;DHT22;7652;53.584;9.998;2022-12-10T19:34:24;1.00;99.90
15103;DHT22;7652;53.584;9.998;2022-12-10T19:37:29;0.90;99.90
15103;DHT22;7652;53.584;9.998;2022-12-10T19:40:34;0.80;99.90
15103;DHT22;7652;53.584;9.998;2022-12-10T19:43:37;0.70;99.90
15103;DHT22;7652;53.584;9.998;2022-12-10T19:46:40;0.80;99.90
15103;DHT22;7652;53.584;9.998;2022-12-10T19:49:44;0.90;99.90
15103;DHT22;7652;53.584;9.998;2022-12-10T19:52:48;0.90;99.90
15103;DHT22;7652;53.584;9.998;2022-12-10T19:55:51;1.00;99.90
15103;DHT22;7652;53.584;9.998;2022-12-10T19:58:56;0.90;99.90
15103;DHT22;7652;53.584;9.998;2022-12-10T20:02:00;0.80;99.90
15103;DHT22;7652;53.584;9.998;2022-12-10T20:05:03;0.90;99.90
15103;DHT22;7652;53.584;9.998;2022-12-10T20:08:09;0.90;99.90
15103;DHT22;7652;53.584;9.998;2022-12-10T20:11:12;0.90;99.90
15103;DHT22;7652;53.584;9.998;2022-12-10T20:14:16;0.90;99.90
15103;DHT22;7652;53.584;9.998;2022-12-10T20:17:19;1.00;99.90
15103;DHT22;7652;53.584;9.998;2022-12-10T20:20:27;1.10;99.90